sensor_id;sensor_type;location;lat;lon;timestamp;P1;durP1;ratioP1;P2;durP2;ratioP2
50231;SDS011;36118;56.468;84.952;2022-08-21T00:04:38;19.80;;;17.73;;
50231;SDS011;36118;56.468;84.952;2022-08-21T00:09:55;16.75;;;14.95;;
50231;SDS011;36118;56.468;84.952;2022-08-21T00:14:58;17.02;;;15.05;;
50231;SDS011;36118;56.468;84.952;2022-08-21T00:20:03;17.80;;;14.63;;
50231;SDS011;36118;56.468;84.952;2022-08-21T00:25:07;16.80;;;14.48;;
50231;SDS011;36118;56.468;84.952;2022-08-21T00:30:12;16.13;;;14.50;;
50231;SDS011;36118;56.468;84.952;2022-08-21T00:35:25;16.48;;;14.50;;
50231;SDS011;36118;56.468;84.952;2022-08-21T00:40:53;16.58;;;13.90;;
50231;SDS011;36118;56.468;84.952;2022-08-21T00:45:54;14.43;;;12.40;;
50231;SDS011;36118;56.468;84.952;2022-08-21T00:51:02;13.88;;;12.25;;
50231;SDS011;36118;56.468;84.952;2022-08-21T00:56:08;14.10;;;11.52;;
50231;SDS011;36118;56.468;84.952;2022-08-21T01:01:12;12.90;;;11.50;;
50231;SDS011;36118;56.468;84.952;2022-08-21T01:06:15;13.63;;;10.00;;
50231;SDS011;36118;56.468;84.952;2022-08-21T01:11:18;12.85;;;10.48;;
50231;SDS011;36118;56.468;84.952;2022-08-21T01:16:21;11.65;;;10.45;;
50231;SDS011;36118;56.468;84.952;2022-08-21T01:21:25;12.27;;;9.60;;
50231;SDS011;36118;56.468;84.952;2022-08-21T01:26:31;12.93;;;10.55;;
50231;SDS011;36118;56.468;84.952;2022-08-21T01:31:37;13.05;;;10.38;;
50231;SDS011;36118;56.468;84.952;2022-08-21T01:36:40;11.40;;;9.85;;
50231;SDS011;36118;56.468;84.952;2022-08-21T01:41:43;12.32;;;9.80;;
50231;SDS011;36118;56.468;84.952;2022-08-21T01:46:46;10.48;;;8.98;;
50231;SDS011;36118;56.468;84.952;2022-08-21T01:51:50;10.25;;;8.73;;
50231;SDS011;36118;56.468;84.952;2022-08-21T01:56:53;11.88;;;8.52;;
50231;SDS011;36118;56.468;84.952;2022-08-21T02:01:56;12.50;;;8.50;;
50231;SDS011;36118;56.468;84.952;2022-08-21T02:07:00;9.35;;;8.25;;
50231;SDS011;36118;56.468;84.952;2022-08-21T02:12:03;10.82;;;8.27;;
50231;SDS011;36118;56.468;84.952;2022-08-21T02:17:06;12.13;;;8.10;;
50231;SDS011;36118;56.468;84.952;2022-08-21T02:22:11;10.38;;;8.15;;
50231;SDS011;36118;56.468;84.952;2022-08-21T02:27:14;12.15;;;8.48;;
50231;SDS011;36118;56.468;84.952;2022-08-21T02:32:21;8.60;;;7.18;;
50231;SDS011;36118;56.468;84.952;2022-08-21T02:37:24;8.65;;;7.70;;
50231;SDS011;36118;56.468;84.952;2022-08-21T02:42:27;8.82;;;7.72;;
50231;SDS011;36118;56.468;84.952;2022-08-21T02:47:30;9.77;;;7.70;;
50231;SDS011;36118;56.468;84.952;2022-08-21T02:52:33;7.65;;;6.82;;
50231;SDS011;36118;56.468;84.952;2022-08-21T02:57:36;10.32;;;7.55;;
50231;SDS011;36118;56.468;84.952;2022-08-21T03:02:39;10.40;;;7.88;;
50231;SDS011;36118;56.468;84.952;2022-08-21T03:07:43;9.73;;;7.63;;
50231;SDS011;36118;56.468;84.952;2022-08-21T03:12:49;9.10;;;8.05;;
50231;SDS011;36118;56.468;84.952;2022-08-21T03:17:52;10.57;;;8.50;;
50231;SDS011;36118;56.468;84.952;2022-08-21T03:22:59;9.25;;;8.27;;
50231;SDS011;36118;56.468;84.952;2022-08-21T03:28:05;8.80;;;7.55;;
50231;SDS011;36118;56.468;84.952;2022-08-21T03:33:08;10.98;;;8.60;;
50231;SDS011;36118;56.468;84.952;2022-08-21T03:38:16;11.00;;;7.95;;
50231;SDS011;36118;56.468;84.952;2022-08-21T03:43:19;10.15;;;8.30;;
50231;SDS011;36118;56.468;84.952;2022-08-21T03:48:22;10.35;;;7.68;;
50231;SDS011;36118;56.468;84.952;2022-08-21T03:53:24;8.88;;;7.65;;
50231;SDS011;36118;56.468;84.952;2022-08-21T03:58:27;9.65;;;7.57;;
50231;SDS011;36118;56.468;84.952;2022-08-21T04:03:31;8.70;;;7.75;;
50231;SDS011;36118;56.468;84.952;2022-08-21T04:08:36;9.27;;;7.18;;
50231;SDS011;36118;56.468;84.952;2022-08-21T04:13:42;10.88;;;7.10;;
50231;SDS011;36118;56.468;84.952;2022-08-21T04:18:45;8.57;;;7.18;;
50231;SDS011;36118;56.468;84.952;2022-08-21T04:23:48;8.77;;;7.00;;
50231;SDS011;36118;56.468;84.952;2022-08-21T04:28:51;12.98;;;9.25;;
50231;SDS011;36118;56.468;84.952;2022-08-21T04:33:57;7.70;;;6.20;;
50231;SDS011;36118;56.468;84.952;2022-08-21T04:39:01;7.45;;;6.65;;
50231;SDS011;36118;56.468;84.952;2022-08-21T04:44:04;8.95;;;7.28;;
50231;SDS011;36118;56.468;84.952;2022-08-21T04:49:08;9.77;;;6.82;;
50231;SDS011;36118;56.468;84.952;2022-08-21T04:54:14;8.27;;;6.28;;
50231;SDS011;36118;56.468;84.952;2022-08-21T04:59:24;9.90;;;6.90;;
50231;SDS011;36118;56.468;84.952;2022-08-21T05:04:32;9.32;;;8.38;;
50231;SDS011;36118;56.468;84.952;2022-08-21T05:09:36;8.40;;;7.07;;
50231;SDS011;36118;56.468;84.952;2022-08-21T05:14:40;7.30;;;5.68;;
50231;SDS011;36118;56.468;84.952;2022-08-21T05:19:44;6.43;;;5.03;;
50231;SDS011;36118;56.468;84.952;2022-08-21T05:24:47;8.15;;;5.72;;
50231;SDS011;36118;56.468;84.952;2022-08-21T05:29:50;7.53;;;5.28;;
50231;SDS011;36118;56.468;84.952;2022-08-21T05:34:53;5.68;;;4.22;;
50231;SDS011;36118;56.468;84.952;2022-08-21T05:39:57;6.65;;;3.65;;
50231;SDS011;36118;56.468;84.952;2022-08-21T05:45:22;4.60;;;3.28;;
50231;SDS011;36118;56.468;84.952;2022-08-21T05:50:45;4.68;;;3.13;;
50231;SDS011;36118;56.468;84.952;2022-08-21T05:55:48;4.45;;;3.20;;
50231;SDS011;36118;56.468;84.952;2022-08-21T06:00:52;4.20;;;3.00;;
50231;SDS011;36118;56.468;84.952;2022-08-21T06:05:55;4.53;;;2.20;;
50231;SDS011;36118;56.468;84.952;2022-08-21T06:10:58;3.78;;;2.70;;
50231;SDS011;36118;56.468;84.952;2022-08-21T06:16:09;5.55;;;3.10;;
50231;SDS011;36118;56.468;84.952;2022-08-21T06:21:17;4.45;;;3.03;;
50231;SDS011;36118;56.468;84.952;2022-08-21T06:26:20;4.65;;;2.80;;
50231;SDS011;36118;56.468;84.952;2022-08-21T06:31:24;3.20;;;2.17;;
50231;SDS011;36118;56.468;84.952;2022-08-21T06:36:31;3.03;;;2.30;;
50231;SDS011;36118;56.468;84.952;2022-08-21T06:41:34;5.43;;;2.70;;
50231;SDS011;36118;56.468;84.952;2022-08-21T06:46:40;3.03;;;2.13;;
50231;SDS011;36118;56.468;84.952;2022-08-21T06:56:48;3.47;;;1.80;;
50231;SDS011;36118;56.468;84.952;2022-08-21T07:01:51;5.78;;;3.92;;
50231;SDS011;36118;56.468;84.952;2022-08-21T07:06:53;2.30;;;1.50;;
50231;SDS011;36118;56.468;84.952;2022-08-21T07:11:57;3.45;;;1.70;;
50231;SDS011;36118;56.468;84.952;2022-08-21T07:16:59;3.33;;;1.63;;
50231;SDS011;36118;56.468;84.952;2022-08-21T07:22:03;2.88;;;1.63;;
50231;SDS011;36118;56.468;84.952;2022-08-21T07:27:06;2.75;;;1.25;;
50231;SDS011;36118;56.468;84.952;2022-08-21T07:32:11;4.30;;;3.03;;
50231;SDS011;36118;56.468;84.952;2022-08-21T07:37:14;2.40;;;1.20;;
50231;SDS011;36118;56.468;84.952;2022-08-21T07:42:18;3.47;;;1.20;;
50231;SDS011;36118;56.468;84.952;2022-08-21T07:47:20;2.53;;;1.35;;
50231;SDS011;36118;56.468;84.952;2022-08-21T07:52:43;3.85;;;1.38;;
50231;SDS011;36118;56.468;84.952;2022-08-21T07:57:47;2.08;;;1.02;;
50231;SDS011;36118;56.468;84.952;2022-08-21T08:02:53;2.65;;;1.35;;
50231;SDS011;36118;56.468;84.952;2022-08-21T08:07:56;2.85;;;1.70;;
50231;SDS011;36118;56.468;84.952;2022-08-21T08:12:59;2.10;;;1.30;;
50231;SDS011;36118;56.468;84.952;2022-08-21T08:18:02;2.38;;;1.40;;
50231;SDS011;36118;56.468;84.952;2022-08-21T08:23:05;1.92;;;1.17;;
50231;SDS011;36118;56.468;84.952;2022-08-21T08:28:08;2.60;;;1.45;;
50231;SDS011;36118;56.468;84.952;2022-08-21T08:33:18;3.80;;;2.10;;
50231;SDS011;36118;56.468;84.952;2022-08-21T08:38:23;6.30;;;2.17;;
50231;SDS011;36118;56.468;84.952;2022-08-21T08:43:28;3.75;;;2.30;;
50231;SDS011;36118;56.468;84.952;2022-08-21T08:54:02;3.25;;;1.92;;
50231;SDS011;36118;56.468;84.952;2022-08-21T08:59:11;2.70;;;1.52;;
50231;SDS011;36118;56.468;84.952;2022-08-21T09:04:21;2.80;;;1.30;;
50231;SDS011;36118;56.468;84.952;2022-08-21T09:20:39;2.40;;;1.00;;
50231;SDS011;36118;56.468;84.952;2022-08-21T09:36:33;2.00;;;0.70;;
50231;SDS011;36118;56.468;84.952;2022-08-21T09:41:39;1.73;;;0.85;;
50231;SDS011;36118;56.468;84.952;2022-08-21T09:46:49;1.75;;;1.00;;
50231;SDS011;36118;56.468;84.952;2022-08-21T09:51:53;2.47;;;1.40;;
50231;SDS011;36118;56.468;84.952;2022-08-21T09:56:59;5.05;;;1.52;;
50231;SDS011;36118;56.468;84.952;2022-08-21T10:02:27;1.80;;;0.70;;
50231;SDS011;36118;56.468;84.952;2022-08-21T10:07:35;2.45;;;0.60;;
50231;SDS011;36118;56.468;84.952;2022-08-21T10:18:14;1.43;;;0.70;;
50231;SDS011;36118;56.468;84.952;2022-08-21T10:23:45;4.60;;;2.92;;
50231;SDS011;36118;56.468;84.952;2022-08-21T10:45:14;5.13;;;1.97;;
50231;SDS011;36118;56.468;84.952;2022-08-21T10:50:30;4.82;;;2.50;;
50231;SDS011;36118;56.468;84.952;2022-08-21T10:55:48;4.88;;;2.83;;
50231;SDS011;36118;56.468;84.952;2022-08-21T11:01:09;6.35;;;3.78;;
50231;SDS011;36118;56.468;84.952;2022-08-21T11:16:44;5.18;;;2.60;;
50231;SDS011;36118;56.468;84.952;2022-08-21T11:21:59;6.78;;;3.53;;
50231;SDS011;36118;56.468;84.952;2022-08-21T11:43:12;4.88;;;2.40;;
50231;SDS011;36118;56.468;84.952;2022-08-21T11:48:55;4.22;;;2.63;;
50231;SDS011;36118;56.468;84.952;2022-08-21T11:54:07;4.43;;;2.65;;
50231;SDS011;36118;56.468;84.952;2022-08-21T12:05:22;5.88;;;3.47;;
50231;SDS011;36118;56.468;84.952;2022-08-21T12:10:36;2.85;;;1.92;;
50231;SDS011;36118;56.468;84.952;2022-08-21T12:15:41;5.80;;;3.83;;
50231;SDS011;36118;56.468;84.952;2022-08-21T12:20:56;4.53;;;3.30;;
50231;SDS011;36118;56.468;84.952;2022-08-21T12:26:09;4.20;;;2.53;;
50231;SDS011;36118;56.468;84.952;2022-08-21T12:31:17;9.10;;;6.13;;
50231;SDS011;36118;56.468;84.952;2022-08-21T12:36:24;5.95;;;3.83;;
50231;SDS011;36118;56.468;84.952;2022-08-21T12:41:43;7.15;;;3.80;;
50231;SDS011;36118;56.468;84.952;2022-08-21T12:46:55;5.78;;;4.03;;
50231;SDS011;36118;56.468;84.952;2022-08-21T12:57:26;5.07;;;3.63;;
50231;SDS011;36118;56.468;84.952;2022-08-21T13:02:35;5.30;;;3.58;;
50231;SDS011;36118;56.468;84.952;2022-08-21T13:07:45;5.10;;;3.42;;
50231;SDS011;36118;56.468;84.952;2022-08-21T13:12:49;5.55;;;3.55;;
50231;SDS011;36118;56.468;84.952;2022-08-21T13:17:54;5.37;;;3.70;;
50231;SDS011;36118;56.468;84.952;2022-08-21T13:22:56;6.57;;;4.07;;
50231;SDS011;36118;56.468;84.952;2022-08-21T13:28:10;11.50;;;8.25;;
50231;SDS011;36118;56.468;84.952;2022-08-21T13:33:15;9.00;;;5.63;;
50231;SDS011;36118;56.468;84.952;2022-08-21T13:38:20;9.80;;;6.30;;
50231;SDS011;36118;56.468;84.952;2022-08-21T13:43:33;11.90;;;6.55;;
50231;SDS011;36118;56.468;84.952;2022-08-21T13:48:41;11.60;;;6.78;;
50231;SDS011;36118;56.468;84.952;2022-08-21T13:53:46;10.55;;;6.25;;
50231;SDS011;36118;56.468;84.952;2022-08-21T13:58:55;12.23;;;7.32;;
50231;SDS011;36118;56.468;84.952;2022-08-21T14:04:04;11.00;;;6.70;;
50231;SDS011;36118;56.468;84.952;2022-08-21T14:09:33;14.27;;;7.57;;
50231;SDS011;36118;56.468;84.952;2022-08-21T14:14:41;12.70;;;7.38;;
50231;SDS011;36118;56.468;84.952;2022-08-21T14:19:45;19.52;;;12.30;;
50231;SDS011;36118;56.468;84.952;2022-08-21T14:24:49;15.70;;;8.87;;
50231;SDS011;36118;56.468;84.952;2022-08-21T14:30:17;15.27;;;9.50;;
50231;SDS011;36118;56.468;84.952;2022-08-21T14:40:32;12.57;;;9.32;;
50231;SDS011;36118;56.468;84.952;2022-08-21T14:45:35;16.27;;;10.25;;
50231;SDS011;36118;56.468;84.952;2022-08-21T14:50:41;13.52;;;10.23;;
50231;SDS011;36118;56.468;84.952;2022-08-21T14:55:44;15.65;;;10.20;;
50231;SDS011;36118;56.468;84.952;2022-08-21T15:01:09;17.83;;;10.25;;
50231;SDS011;36118;56.468;84.952;2022-08-21T15:06:14;16.77;;;10.32;;
50231;SDS011;36118;56.468;84.952;2022-08-21T15:11:23;15.35;;;10.07;;
50231;SDS011;36118;56.468;84.952;2022-08-21T15:16:43;16.55;;;10.32;;
50231;SDS011;36118;56.468;84.952;2022-08-21T15:21:46;20.02;;;9.98;;
50231;SDS011;36118;56.468;84.952;2022-08-21T15:26:50;13.23;;;9.05;;
50231;SDS011;36118;56.468;84.952;2022-08-21T15:31:57;13.82;;;8.48;;
50231;SDS011;36118;56.468;84.952;2022-08-21T15:37:20;15.50;;;9.20;;
50231;SDS011;36118;56.468;84.952;2022-08-21T15:42:24;11.80;;;8.43;;
50231;SDS011;36118;56.468;84.952;2022-08-21T15:47:31;11.40;;;6.90;;
50231;SDS011;36118;56.468;84.952;2022-08-21T15:52:37;13.60;;;8.07;;
50231;SDS011;36118;56.468;84.952;2022-08-21T15:57:45;11.70;;;6.45;;
50231;SDS011;36118;56.468;84.952;2022-08-21T16:03:00;9.15;;;5.15;;
50231;SDS011;36118;56.468;84.952;2022-08-21T16:08:05;9.18;;;5.30;;
50231;SDS011;36118;56.468;84.952;2022-08-21T16:13:14;11.35;;;4.50;;
50231;SDS011;36118;56.468;84.952;2022-08-21T16:18:21;8.13;;;5.10;;
50231;SDS011;36118;56.468;84.952;2022-08-21T16:23:25;11.75;;;8.90;;
50231;SDS011;36118;56.468;84.952;2022-08-21T16:28:28;10.88;;;6.88;;
50231;SDS011;36118;56.468;84.952;2022-08-21T16:38:45;7.68;;;3.75;;
50231;SDS011;36118;56.468;84.952;2022-08-21T16:43:59;8.73;;;4.10;;
50231;SDS011;36118;56.468;84.952;2022-08-21T16:49:03;5.97;;;3.45;;
50231;SDS011;36118;56.468;84.952;2022-08-21T16:54:05;4.38;;;2.90;;
50231;SDS011;36118;56.468;84.952;2022-08-21T16:59:08;6.97;;;3.28;;
50231;SDS011;36118;56.468;84.952;2022-08-21T17:04:12;5.53;;;3.70;;
50231;SDS011;36118;56.468;84.952;2022-08-21T17:09:15;6.47;;;3.33;;
50231;SDS011;36118;56.468;84.952;2022-08-21T17:14:26;7.70;;;3.40;;
50231;SDS011;36118;56.468;84.952;2022-08-21T17:19:29;7.40;;;4.05;;
50231;SDS011;36118;56.468;84.952;2022-08-21T17:24:35;7.07;;;3.33;;
50231;SDS011;36118;56.468;84.952;2022-08-21T17:29:38;6.82;;;3.55;;
50231;SDS011;36118;56.468;84.952;2022-08-21T17:34:42;7.82;;;3.63;;
50231;SDS011;36118;56.468;84.952;2022-08-21T17:39:46;6.25;;;3.33;;
50231;SDS011;36118;56.468;84.952;2022-08-21T17:44:48;6.13;;;3.58;;
50231;SDS011;36118;56.468;84.952;2022-08-21T17:49:51;5.03;;;3.63;;
50231;SDS011;36118;56.468;84.952;2022-08-21T17:54:54;6.25;;;4.00;;
50231;SDS011;36118;56.468;84.952;2022-08-21T17:59:57;7.07;;;3.50;;
50231;SDS011;36118;56.468;84.952;2022-08-21T18:05:00;7.68;;;3.88;;
50231;SDS011;36118;56.468;84.952;2022-08-21T18:10:05;8.50;;;4.40;;
50231;SDS011;36118;56.468;84.952;2022-08-21T18:15:10;8.43;;;4.47;;
50231;SDS011;36118;56.468;84.952;2022-08-21T18:20:16;6.28;;;3.80;;
50231;SDS011;36118;56.468;84.952;2022-08-21T18:25:20;10.60;;;4.68;;
50231;SDS011;36118;56.468;84.952;2022-08-21T18:30:23;7.57;;;4.30;;
50231;SDS011;36118;56.468;84.952;2022-08-21T18:35:26;7.78;;;4.65;;
50231;SDS011;36118;56.468;84.952;2022-08-21T18:40:33;9.45;;;4.82;;
50231;SDS011;36118;56.468;84.952;2022-08-21T18:45:39;12.95;;;6.10;;
50231;SDS011;36118;56.468;84.952;2022-08-21T18:50:43;11.18;;;5.93;;
50231;SDS011;36118;56.468;84.952;2022-08-21T18:55:48;9.48;;;5.30;;
50231;SDS011;36118;56.468;84.952;2022-08-21T19:00:51;10.38;;;5.63;;
50231;SDS011;36118;56.468;84.952;2022-08-21T19:05:56;10.63;;;4.83;;
50231;SDS011;36118;56.468;84.952;2022-08-21T19:11:00;7.60;;;4.05;;
50231;SDS011;36118;56.468;84.952;2022-08-21T19:21:10;8.73;;;4.38;;
50231;SDS011;36118;56.468;84.952;2022-08-21T19:26:14;7.25;;;3.97;;
50231;SDS011;36118;56.468;84.952;2022-08-21T19:31:19;11.15;;;4.50;;
50231;SDS011;36118;56.468;84.952;2022-08-21T19:36:24;9.30;;;4.38;;
50231;SDS011;36118;56.468;84.952;2022-08-21T19:41:30;6.90;;;4.20;;
50231;SDS011;36118;56.468;84.952;2022-08-21T19:46:35;11.18;;;4.68;;
50231;SDS011;36118;56.468;84.952;2022-08-21T19:51:42;7.22;;;4.78;;
50231;SDS011;36118;56.468;84.952;2022-08-21T19:56:45;8.57;;;5.20;;
50231;SDS011;36118;56.468;84.952;2022-08-21T20:01:48;8.65;;;5.00;;
50231;SDS011;36118;56.468;84.952;2022-08-21T20:06:51;6.78;;;4.95;;
50231;SDS011;36118;56.468;84.952;2022-08-21T20:11:55;8.13;;;4.78;;
50231;SDS011;36118;56.468;84.952;2022-08-21T20:17:00;6.97;;;4.22;;
50231;SDS011;36118;56.468;84.952;2022-08-21T20:22:07;10.63;;;4.78;;
50231;SDS011;36118;56.468;84.952;2022-08-21T20:27:12;8.73;;;5.20;;
50231;SDS011;36118;56.468;84.952;2022-08-21T20:32:17;7.50;;;5.07;;
50231;SDS011;36118;56.468;84.952;2022-08-21T20:42:47;8.25;;;5.55;;
50231;SDS011;36118;56.468;84.952;2022-08-21T20:48:00;6.93;;;4.60;;
50231;SDS011;36118;56.468;84.952;2022-08-21T20:53:13;7.40;;;4.63;;
50231;SDS011;36118;56.468;84.952;2022-08-21T20:58:26;7.95;;;4.82;;
50231;SDS011;36118;56.468;84.952;2022-08-21T21:03:44;7.15;;;5.22;;
50231;SDS011;36118;56.468;84.952;2022-08-21T21:08:52;9.52;;;5.10;;
50231;SDS011;36118;56.468;84.952;2022-08-21T21:19:19;8.15;;;5.68;;
50231;SDS011;36118;56.468;84.952;2022-08-21T21:30:39;8.65;;;5.28;;
50231;SDS011;36118;56.468;84.952;2022-08-21T21:35:48;8.60;;;5.32;;
50231;SDS011;36118;56.468;84.952;2022-08-21T21:46:29;9.25;;;6.43;;
50231;SDS011;36118;56.468;84.952;2022-08-21T21:51:47;12.90;;;6.10;;
50231;SDS011;36118;56.468;84.952;2022-08-21T22:07:35;9.50;;;7.10;;
50231;SDS011;36118;56.468;84.952;2022-08-21T22:18:00;9.80;;;7.38;;
50231;SDS011;36118;56.468;84.952;2022-08-21T22:23:08;10.27;;;7.53;;
50231;SDS011;36118;56.468;84.952;2022-08-21T22:28:19;12.40;;;7.47;;
50231;SDS011;36118;56.468;84.952;2022-08-21T22:34:02;11.90;;;7.40;;
50231;SDS011;36118;56.468;84.952;2022-08-21T22:39:29;13.23;;;8.17;;
50231;SDS011;36118;56.468;84.952;2022-08-21T22:45:14;9.65;;;8.00;;
50231;SDS011;36118;56.468;84.952;2022-08-21T22:50:31;11.48;;;8.70;;
50231;SDS011;36118;56.468;84.952;2022-08-21T22:55:36;9.93;;;8.30;;
50231;SDS011;36118;56.468;84.952;2022-08-21T23:06:39;12.45;;;8.43;;
50231;SDS011;36118;56.468;84.952;2022-08-21T23:11:53;11.07;;;8.43;;
50231;SDS011;36118;56.468;84.952;2022-08-21T23:16:58;16.05;;;9.00;;
50231;SDS011;36118;56.468;84.952;2022-08-21T23:27:46;10.80;;;9.32;;
50231;SDS011;36118;56.468;84.952;2022-08-21T23:44:31;14.60;;;8.85;;
